Time;durP1;ratioP1;P1;durP2;ratioP2;P2;SDS_P1;SDS_P2;PMS_P1;PMS_P2;Temp;Humidity;BMP_temperature;BMP_pressure;BME280_temperature;BME280_humidity;BME280_pressure;Samples;Min_cycle;Max_cycle;Signal;HPM_P1;HPM_P2
2022/03/18 00:01:21;;;;;;;47.95;25.20;;;7.00;99.90;;;;;;5030234;28;20041;-35
2022/03/18 00:03:47;;;;;;;53.88;25.58;;;6.90;99.90;;;;;;5028768;28;20129;-38
2022/03/18 00:06:16;;;;;;;54.83;25.50;;;6.90;99.90;;;;;;5031705;28;20394;-35
2022/03/18 00:08:42;;;;;;;54.58;24.88;;;6.90;99.90;;;;;;5026007;28;20056;-36
2022/03/18 00:11:08;;;;;;;55.15;24.77;;;6.90;99.90;;;;;;5024315;28;20101;-36
2022/03/18 00:13:34;;;;;;;51.95;24.92;;;6.90;99.90;;;;;;5027043;28;20017;-36
2022/03/18 00:16:00;;;;;;;50.88;25.30;;;6.90;99.90;;;;;;5028686;28;20170;-36
2022/03/18 00:18:26;;;;;;;56.97;25.77;;;6.90;99.90;;;;;;5026375;28;20199;-35
2022/03/18 00:20:52;;;;;;;57.10;24.50;;;6.90;99.90;;;;;;5020752;28;20104;-35
2022/03/18 00:23:17;;;;;;;54.80;24.77;;;6.90;99.90;;;;;;5019970;28;20017;-35
2022/03/18 00:25:43;;;;;;;51.28;24.30;;;6.90;99.90;;;;;;5024344;28;20090;-35
2022/03/18 00:28:09;;;;;;;50.22;23.92;;;6.90;99.90;;;;;;5027593;28;20120;-34
2022/03/18 00:30:34;;;;;;;47.95;22.73;;;6.90;99.90;;;;;;5022567;28;20036;-35
2022/03/18 00:33:00;;;;;;;53.83;24.73;;;6.90;99.90;;;;;;5007181;28;20045;-37
2022/03/18 00:35:26;;;;;;;51.78;25.13;;;6.90;99.90;;;;;;5023846;28;20037;-37
2022/03/18 00:37:52;;;;;;;54.63;25.67;;;6.90;99.90;;;;;;5025400;28;20033;-35
2022/03/18 00:40:17;;;;;;;56.33;26.63;;;6.80;99.90;;;;;;5027186;28;20135;-36
2022/03/18 00:42:43;;;;;;;49.28;23.25;;;6.90;99.90;;;;;;5024298;28;20033;-35
2022/03/18 00:45:09;;;;;;;52.95;24.92;;;6.80;99.90;;;;;;5028690;28;20029;-36
2022/03/18 00:53:04;;;;;;;48.65;23.92;;;6.80;99.90;;;;;;5027675;28;20208;-35
2022/03/18 00:55:30;;;;;;;48.92;23.85;;;6.80;99.90;;;;;;5027214;28;20044;-37
2022/03/18 00:57:56;;;;;;;49.45;23.08;;;6.80;99.90;;;;;;5029289;28;20018;-36
2022/03/18 01:00:22;;;;;;;51.95;23.00;;;6.80;99.90;;;;;;5029651;28;20034;-38
2022/03/18 01:02:47;;;;;;;57.25;24.50;;;6.80;99.90;;;;;;5025756;28;20036;-35
2022/03/18 01:05:13;;;;;;;50.00;23.40;;;6.80;99.90;;;;;;5030014;28;20483;-35
2022/03/18 01:07:39;;;;;;;51.13;24.02;;;6.70;99.90;;;;;;5028292;28;20029;-38
2022/03/18 01:10:05;;;;;;;46.80;23.35;;;6.60;99.90;;;;;;5006610;28;20034;-38
2022/03/18 01:12:30;;;;;;;50.80;23.40;;;6.70;99.90;;;;;;5023579;28;20030;-36
2022/03/18 01:14:56;;;;;;;52.85;24.33;;;6.70;99.90;;;;;;5027142;28;20119;-35
2022/03/18 01:17:22;;;;;;;55.15;24.48;;;6.70;99.90;;;;;;5027083;28;20079;-35
2022/03/18 01:19:48;;;;;;;53.47;24.35;;;6.70;99.90;;;;;;5026952;28;20041;-35
2022/03/18 01:22:13;;;;;;;49.25;24.20;;;6.70;99.90;;;;;;5021409;28;20033;-37
2022/03/18 01:24:39;;;;;;;53.78;24.75;;;6.70;99.90;;;;;;5026173;28;20044;-36
2022/03/18 01:27:06;;;;;;;45.78;22.63;;;6.70;99.90;;;;;;5023151;28;20113;-36
2022/03/18 01:29:33;;;;;;;59.30;26.42;;;6.70;99.90;;;;;;5029699;28;20029;-36
2022/03/18 01:31:59;;;;;;;63.92;28.25;;;6.60;99.90;;;;;;5025552;28;20156;-37
2022/03/18 01:34:25;;;;;;;53.63;23.50;;;6.60;99.90;;;;;;5027207;28;20609;-38
2022/03/18 01:36:51;;;;;;;64.93;28.67;;;6.50;99.90;;;;;;5028079;28;20108;-36
2022/03/18 01:39:16;;;;;;;304.40;89.88;;;6.50;99.90;;;;;;5030685;28;20097;-38
2022/03/18 01:41:43;;;;;;;146.15;51.67;;;6.50;99.90;;;;;;5025978;28;20040;-37
2022/03/18 01:44:12;;;;;;;139.27;47.97;;;6.50;99.90;;;;;;5028397;28;20386;-38
2022/03/18 01:46:38;;;;;;;436.15;122.50;;;6.50;99.90;;;;;;5030542;28;20060;-38
2022/03/18 01:49:05;;;;;;;188.75;58.38;;;6.50;99.90;;;;;;5028901;28;20026;-36
2022/03/18 01:51:32;;;;;;;104.65;36.88;;;6.50;99.90;;;;;;5028565;28;20030;-37
2022/03/18 01:56:43;;;;;;;133.90;42.80;;;6.50;99.90;;;;;;5029279;28;20080;-39
2022/03/18 01:59:11;;;;;;;97.82;35.60;;;6.50;99.90;;;;;;5030916;28;20037;-36
2022/03/18 02:01:37;;;;;;;99.63;35.67;;;6.50;99.90;;;;;;5029703;28;20398;-36
2022/03/18 02:04:03;;;;;;;88.53;34.85;;;6.50;99.90;;;;;;5030251;28;20029;-37
2022/03/18 02:06:28;;;;;;;87.32;29.55;;;6.50;99.90;;;;;;5030659;28;20022;-36
2022/03/18 02:08:54;;;;;;;77.45;30.48;;;6.50;99.90;;;;;;5025828;28;20034;-36
2022/03/18 02:11:21;;;;;;;51.05;23.95;;;6.60;99.90;;;;;;5023162;28;20872;-36
2022/03/18 02:13:50;;;;;;;52.95;23.27;;;6.60;99.90;;;;;;5023145;28;20762;-37
2022/03/18 02:16:15;;;;;;;79.43;28.77;;;6.60;99.90;;;;;;5026713;28;20111;-36
2022/03/18 02:18:41;;;;;;;59.30;26.55;;;6.60;99.90;;;;;;5023499;28;20136;-37
2022/03/18 02:21:08;;;;;;;69.82;28.77;;;6.60;99.90;;;;;;5024759;28;20021;-36
2022/03/18 02:23:34;;;;;;;64.18;27.98;;;6.60;99.90;;;;;;5029256;28;20051;-37
2022/03/18 02:26:00;;;;;;;65.90;28.98;;;6.50;99.90;;;;;;5029128;28;20030;-39
2022/03/18 02:28:26;;;;;;;63.60;27.23;;;6.50;99.90;;;;;;5024388;28;20368;-36
2022/03/18 02:30:51;;;;;;;57.13;25.77;;;6.60;99.90;;;;;;5033328;28;20056;-36
2022/03/18 02:33:18;;;;;;;56.67;26.00;;;6.60;99.90;;;;;;5032276;28;20033;-35
2022/03/18 02:35:43;;;;;;;55.03;25.00;;;6.60;99.90;;;;;;5028018;28;20060;-36
2022/03/18 02:38:09;;;;;;;59.83;25.25;;;6.60;99.90;;;;;;5020528;28;20025;-36
2022/03/18 02:40:34;;;;;;;60.53;25.48;;;6.50;99.90;;;;;;5032173;28;20267;-35
2022/03/18 02:43:00;;;;;;;51.45;24.63;;;6.40;99.90;;;;;;5017421;28;20044;-36
2022/03/18 02:45:26;;;;;;;52.65;24.35;;;6.40;99.90;;;;;;5033743;28;20025;-37
2022/03/18 02:47:51;;;;;;;52.55;23.85;;;6.30;99.90;;;;;;5032659;28;20034;-40
2022/03/18 02:50:17;;;;;;;50.13;23.52;;;6.20;99.90;;;;;;5027892;28;20021;-36
2022/03/18 02:52:44;;;;;;;51.35;23.33;;;6.20;99.90;;;;;;5027283;28;20107;-37
2022/03/18 02:55:10;;;;;;;51.90;24.33;;;6.20;99.90;;;;;;5029873;28;20048;-37
2022/03/18 02:57:37;;;;;;;51.03;24.05;;;6.20;99.90;;;;;;5031560;28;20041;-36
2022/03/18 03:00:05;;;;;;;57.75;26.92;;;6.20;99.90;;;;;;5025278;28;20026;-37
2022/03/18 03:02:31;;;;;;;57.15;24.95;;;6.20;99.90;;;;;;5026135;28;20595;-36
2022/03/18 03:07:59;;;;;;;54.35;25.50;;;6.20;99.90;;;;;;5032611;28;20402;-37
2022/03/18 03:10:29;;;;;;;54.85;25.23;;;6.20;99.90;;;;;;5028540;28;20029;-37
2022/03/18 03:12:59;;;;;;;52.53;26.15;;;6.20;99.90;;;;;;5030336;28;20056;-37
2022/03/18 03:15:26;;;;;;;57.92;26.38;;;6.20;99.90;;;;;;5028720;28;20414;-36
2022/03/18 03:17:52;;;;;;;52.67;26.92;;;6.20;99.90;;;;;;5029045;28;20049;-36
2022/03/18 03:20:17;;;;;;;53.38;23.92;;;6.20;99.90;;;;;;5029495;28;20450;-36
2022/03/18 03:22:43;;;;;;;53.90;24.48;;;6.20;99.90;;;;;;5027706;28;20474;-37
2022/03/18 03:25:09;;;;;;;62.03;25.73;;;6.20;99.90;;;;;;5027626;28;20076;-38
2022/03/18 03:27:35;;;;;;;51.38;26.23;;;6.10;99.90;;;;;;5024901;28;20057;-39
2022/03/18 03:30:09;;;;;;;50.70;23.58;;;6.10;99.90;;;;;;5035002;28;20486;-36
2022/03/18 03:32:35;;;;;;;54.83;25.88;;;6.10;99.90;;;;;;5008579;28;20473;-36
2022/03/18 03:35:01;;;;;;;54.80;25.60;;;6.20;99.90;;;;;;5030601;28;20029;-37
2022/03/18 03:37:28;;;;;;;58.58;25.70;;;6.20;99.90;;;;;;5034326;28;20026;-38
2022/03/18 03:39:54;;;;;;;52.13;24.67;;;6.20;99.90;;;;;;5031151;28;20585;-36
2022/03/18 03:42:20;;;;;;;47.25;23.00;;;6.20;99.90;;;;;;5033046;28;20030;-40
2022/03/18 03:44:46;;;;;;;50.42;24.10;;;6.20;99.90;;;;;;5028520;28;20029;-38
2022/03/18 03:47:13;;;;;;;50.53;24.25;;;6.20;99.90;;;;;;5033758;28;20025;-36
2022/03/18 03:49:39;;;;;;;58.25;24.90;;;6.20;99.90;;;;;;5013878;28;20041;-36
2022/03/18 03:52:08;;;;;;;52.13;25.55;;;6.30;99.90;;;;;;5014171;28;20057;-39
2022/03/18 03:54:34;;;;;;;50.70;23.00;;;6.20;99.90;;;;;;5033287;28;20517;-36
2022/03/18 03:57:00;;;;;;;47.95;23.85;;;6.30;99.90;;;;;;5034806;28;20422;-36
2022/03/18 03:59:25;;;;;;;47.35;22.20;;;6.30;99.90;;;;;;5029606;28;20029;-36
2022/03/18 04:01:51;;;;;;;47.08;22.73;;;6.30;99.90;;;;;;5029387;28;20049;-36
2022/03/18 04:04:16;;;;;;;46.05;23.98;;;6.30;99.90;;;;;;5031541;28;20056;-37
2022/03/18 04:06:43;;;;;;;44.78;22.92;;;6.20;99.90;;;;;;5028882;28;20056;-37
2022/03/18 04:09:08;;;;;;;49.42;23.17;;;6.20;99.90;;;;;;5029430;28;20025;-38
2022/03/18 04:11:34;;;;;;;59.08;24.23;;;6.20;99.90;;;;;;5028815;28;20609;-37
2022/03/18 04:13:59;;;;;;;49.47;23.90;;;6.20;99.90;;;;;;5028893;28;20059;-36
2022/03/18 04:16:25;;;;;;;48.80;23.15;;;6.20;99.90;;;;;;5025653;28;20030;-37
2022/03/18 04:18:51;;;;;;;50.17;23.25;;;6.20;99.90;;;;;;5028201;28;20103;-36
2022/03/18 04:21:16;;;;;;;51.25;22.10;;;6.20;99.90;;;;;;5012221;28;20376;-40
2022/03/18 04:23:42;;;;;;;46.95;22.83;;;6.20;99.90;;;;;;5028082;28;20029;-37
2022/03/18 04:26:08;;;;;;;44.95;23.23;;;6.20;99.90;;;;;;5027066;28;20036;-38
2022/03/18 04:28:33;;;;;;;46.15;22.70;;;6.20;99.90;;;;;;5026147;28;20022;-38
2022/03/18 04:30:59;;;;;;;46.88;23.48;;;6.20;99.90;;;;;;5027933;28;20029;-36
2022/03/18 04:33:24;;;;;;;50.03;24.60;;;6.10;99.90;;;;;;5029262;28;20038;-36
2022/03/18 04:35:51;;;;;;;49.25;24.50;;;6.20;99.90;;;;;;5022479;28;20033;-37
2022/03/18 04:38:17;;;;;;;52.38;25.35;;;6.10;99.90;;;;;;5030192;28;20037;-37
2022/03/18 04:40:43;;;;;;;51.03;24.00;;;6.10;99.90;;;;;;5028393;28;20030;-38
2022/03/18 04:43:08;;;;;;;46.47;23.48;;;6.10;99.90;;;;;;5028735;28;20399;-39
2022/03/18 04:45:34;;;;;;;50.70;25.73;;;6.10;99.90;;;;;;5025981;28;20028;-40
2022/03/18 04:48:00;;;;;;;50.10;24.85;;;6.10;99.90;;;;;;5023112;28;20032;-38
2022/03/18 04:50:25;;;;;;;54.40;26.13;;;6.10;99.90;;;;;;5024302;28;20030;-39
2022/03/18 04:52:51;;;;;;;48.45;24.25;;;6.10;99.90;;;;;;5027697;28;20055;-36
2022/03/18 04:55:17;;;;;;;50.70;24.95;;;6.10;99.90;;;;;;5034062;28;20033;-37
2022/03/18 04:57:42;;;;;;;52.33;25.27;;;6.10;99.90;;;;;;5022763;28;20120;-38
2022/03/18 05:00:09;;;;;;;50.30;24.27;;;6.10;99.90;;;;;;5028426;28;20617;-37
2022/03/18 05:02:38;;;;;;;51.10;25.58;;;6.10;99.90;;;;;;5025678;28;20034;-38
2022/03/18 05:05:11;;;;;;;54.78;23.98;;;6.00;99.90;;;;;;5026321;28;20524;-39
2022/03/18 05:07:40;;;;;;;53.97;25.05;;;6.00;99.90;;;;;;5026391;28;20479;-37
2022/03/18 05:10:07;;;;;;;52.38;26.20;;;6.10;99.90;;;;;;5020878;28;20456;-37
2022/03/18 05:12:33;;;;;;;51.92;24.73;;;6.10;99.90;;;;;;5024077;28;20025;-38
2022/03/18 05:14:59;;;;;;;48.45;23.95;;;6.10;99.90;;;;;;5024506;28;20471;-38
2022/03/18 05:17:25;;;;;;;55.42;26.40;;;6.10;99.90;;;;;;5022945;28;20029;-36
2022/03/18 05:19:51;;;;;;;54.72;25.95;;;6.00;99.90;;;;;;5003265;28;20053;-36
2022/03/18 05:22:17;;;;;;;51.00;24.83;;;6.00;99.90;;;;;;5020399;28;20032;-36
2022/03/18 05:24:43;;;;;;;55.42;26.00;;;6.00;99.90;;;;;;5023109;28;20029;-38
2022/03/18 05:27:08;;;;;;;51.05;24.45;;;6.00;99.90;;;;;;5024542;28;20025;-37
2022/03/18 05:29:34;;;;;;;51.88;26.08;;;5.90;99.90;;;;;;5023364;28;20022;-36
2022/03/18 05:32:01;;;;;;;52.92;25.15;;;6.00;99.90;;;;;;5026283;28;20735;-36
2022/03/18 05:34:27;;;;;;;58.08;28.50;;;5.90;99.90;;;;;;5024746;28;20125;-36
2022/03/18 05:36:53;;;;;;;52.88;26.08;;;5.90;99.90;;;;;;5029055;28;20029;-39
2022/03/18 05:39:19;;;;;;;54.03;26.83;;;5.90;99.90;;;;;;5026605;28;20036;-39
2022/03/18 05:41:45;;;;;;;53.47;26.63;;;5.90;99.90;;;;;;5030101;28;20059;-40
2022/03/18 05:44:11;;;;;;;57.25;26.50;;;5.90;99.90;;;;;;5026169;28;20065;-37
2022/03/18 05:46:38;;;;;;;59.75;26.17;;;5.90;99.90;;;;;;5013789;28;20029;-37
2022/03/18 05:49:04;;;;;;;57.55;27.20;;;5.90;99.90;;;;;;5028234;28;20026;-37
2022/03/18 05:51:30;;;;;;;62.42;27.20;;;5.90;99.90;;;;;;5026056;28;20403;-36
2022/03/18 05:53:56;;;;;;;63.10;28.13;;;5.90;99.90;;;;;;5026179;28;20041;-38
2022/03/18 05:59:07;;;;;;;58.15;26.17;;;5.90;99.90;;;;;;5025096;28;20033;-37
2022/03/18 06:01:37;;;;;;;61.10;28.33;;;5.90;99.90;;;;;;5029074;28;20099;-37
2022/03/18 06:04:10;;;;;;;56.97;26.60;;;5.90;99.90;;;;;;5011175;28;20490;-36
2022/03/18 06:06:39;;;;;;;64.80;28.98;;;6.00;99.90;;;;;;5029091;28;21768;-38
2022/03/18 06:11:51;;;;;;;61.25;27.85;;;6.00;99.90;;;;;;5020628;28;20037;-39
2022/03/18 06:14:22;;;;;;;64.20;29.88;;;6.00;99.90;;;;;;5022985;28;20052;-36
2022/03/18 06:16:49;;;;;;;64.43;29.52;;;6.00;99.90;;;;;;5025564;28;20033;-37
2022/03/18 06:19:17;;;;;;;61.37;28.23;;;6.00;99.90;;;;;;5023905;28;20041;-39
2022/03/18 06:21:43;;;;;;;59.58;29.02;;;6.00;99.90;;;;;;5022777;28;20854;-37
2022/03/18 06:24:09;;;;;;;64.13;29.23;;;6.00;99.90;;;;;;5019768;28;20037;-39
2022/03/18 06:26:35;;;;;;;63.00;27.67;;;6.10;99.90;;;;;;5024057;28;20033;-36
2022/03/18 06:29:02;;;;;;;66.07;29.00;;;6.10;99.90;;;;;;5022912;28;20038;-36
2022/03/18 06:31:28;;;;;;;64.93;29.63;;;6.10;99.90;;;;;;5009104;28;20038;-36
2022/03/18 06:33:54;;;;;;;64.38;28.90;;;6.10;99.90;;;;;;5030381;28;20489;-37
2022/03/18 06:36:19;;;;;;;65.85;29.02;;;6.10;99.90;;;;;;5008639;28;20116;-36
2022/03/18 06:38:46;;;;;;;58.55;27.67;;;6.10;99.90;;;;;;5006145;28;20469;-38
2022/03/18 06:41:12;;;;;;;67.07;28.55;;;6.20;99.90;;;;;;5024786;28;20025;-36
2022/03/18 06:43:38;;;;;;;69.90;29.27;;;6.20;99.90;;;;;;5025936;28;20037;-38
2022/03/18 06:46:04;;;;;;;58.92;29.25;;;6.20;99.90;;;;;;5012348;28;20026;-38
2022/03/18 06:48:30;;;;;;;65.45;29.42;;;6.30;99.90;;;;;;5023564;28;20090;-37
2022/03/18 06:50:55;;;;;;;63.58;28.38;;;6.30;99.90;;;;;;5024272;28;20045;-39
2022/03/18 06:53:21;;;;;;;62.45;29.77;;;6.30;99.90;;;;;;5022053;28;20041;-39
2022/03/18 06:55:46;;;;;;;63.53;28.05;;;6.30;99.90;;;;;;5027704;28;20030;-37
2022/03/18 06:58:12;;;;;;;62.88;28.60;;;6.40;99.90;;;;;;5025412;28;20124;-37
2022/03/18 07:00:39;;;;;;;61.65;28.45;;;6.40;99.90;;;;;;5018704;28;20050;-38
2022/03/18 07:03:05;;;;;;;66.05;28.98;;;6.50;99.90;;;;;;5027118;28;20160;-37
2022/03/18 07:05:34;;;;;;;63.80;28.63;;;6.50;99.90;;;;;;5028245;28;20487;-36
2022/03/18 07:08:00;;;;;;;62.70;28.77;;;6.60;99.90;;;;;;5027014;28;20398;-38
2022/03/18 07:10:26;;;;;;;64.63;26.50;;;6.60;99.90;;;;;;5024555;28;20025;-38
2022/03/18 07:12:52;;;;;;;57.15;24.88;;;6.70;99.90;;;;;;5026473;28;20418;-40
2022/03/18 07:15:18;;;;;;;57.63;27.38;;;6.70;99.90;;;;;;5025944;28;20030;-37
2022/03/18 07:17:58;;;;;;;61.83;27.05;;;6.70;99.90;;;;;;5022098;28;20723;-36
2022/03/18 07:20:31;;;;;;;64.63;30.02;;;6.70;99.90;;;;;;5019101;28;20116;-39
2022/03/18 07:23:08;;;;;;;61.53;27.38;;;6.80;99.90;;;;;;5024113;28;20030;-38
2022/03/18 07:25:36;;;;;;;60.53;26.45;;;6.80;99.90;;;;;;5024196;28;20029;-37
2022/03/18 07:28:02;;;;;;;66.65;27.10;;;6.80;99.90;;;;;;5023717;28;20604;-36
2022/03/18 07:30:28;;;;;;;54.35;25.70;;;6.80;99.90;;;;;;5023454;28;20030;-38
2022/03/18 07:32:54;;;;;;;54.92;25.15;;;6.90;99.90;;;;;;5024789;28;20040;-36
2022/03/18 07:35:19;;;;;;;60.92;26.88;;;6.90;99.90;;;;;;5023995;28;20109;-38
2022/03/18 07:37:46;;;;;;;57.78;26.10;;;6.90;99.90;;;;;;5024525;28;20471;-37
2022/03/18 07:40:11;;;;;;;61.13;26.52;;;6.90;99.90;;;;;;5027530;28;20493;-37
2022/03/18 07:42:51;;;;;;;62.08;28.05;;;7.00;99.90;;;;;;5027209;28;20104;-36
2022/03/18 07:45:28;;;;;;;56.13;24.55;;;7.00;99.90;;;;;;5022960;28;20375;-36
2022/03/18 07:47:58;;;;;;;57.13;25.65;;;7.10;99.90;;;;;;5025455;28;20489;-36
2022/03/18 07:50:26;;;;;;;51.75;24.23;;;7.10;99.90;;;;;;5025645;28;20356;-36
2022/03/18 07:52:55;;;;;;;52.38;23.23;;;7.00;99.90;;;;;;5024487;28;20026;-36
2022/03/18 07:55:22;;;;;;;57.53;27.00;;;7.20;99.90;;;;;;5027210;28;20088;-39
2022/03/18 07:57:48;;;;;;;49.25;22.85;;;7.20;99.90;;;;;;5023594;28;20029;-36
2022/03/18 08:00:16;;;;;;;47.28;24.98;;;7.20;99.90;;;;;;5021861;28;20033;-38
2022/03/18 08:02:43;;;;;;;51.85;26.30;;;7.20;99.90;;;;;;5023009;28;20033;-35
2022/03/18 08:05:09;;;;;;;54.92;26.38;;;7.20;99.90;;;;;;5025938;28;20025;-36
2022/03/18 08:07:36;;;;;;;48.75;24.30;;;7.10;99.90;;;;;;5026746;28;20034;-36
2022/03/18 08:10:03;;;;;;;46.42;22.55;;;7.10;99.90;;;;;;5028865;28;20108;-38
2022/03/18 08:12:29;;;;;;;57.55;29.27;;;7.20;99.90;;;;;;5027328;28;20411;-36
2022/03/18 08:14:57;;;;;;;51.25;24.52;;;7.20;99.90;;;;;;5028185;28;20040;-36
2022/03/18 08:17:23;;;;;;;50.97;23.95;;;7.20;99.90;;;;;;5024415;28;20025;-37
2022/03/18 08:19:50;;;;;;;53.15;26.20;;;7.20;99.90;;;;;;5022814;28;20179;-37
2022/03/18 08:22:17;;;;;;;56.63;26.77;;;7.20;99.90;;;;;;5025165;28;20029;-35
2022/03/18 08:24:42;;;;;;;51.90;25.67;;;7.30;99.90;;;;;;5022695;28;20021;-37
2022/03/18 08:27:08;;;;;;;46.17;22.65;;;7.30;99.90;;;;;;4999295;28;20079;-35
2022/03/18 08:29:33;;;;;;;51.55;24.42;;;7.40;99.90;;;;;;5026723;28;20026;-36
2022/03/18 08:31:59;;;;;;;52.55;24.55;;;7.50;99.90;;;;;;5025270;28;20076;-36
2022/03/18 08:34:24;;;;;;;53.67;23.98;;;7.50;99.90;;;;;;5018527;28;20080;-39
2022/03/18 08:36:50;;;;;;;50.55;24.52;;;7.70;99.90;;;;;;5025255;28;20410;-39
2022/03/18 08:39:16;;;;;;;50.85;23.67;;;7.70;99.90;;;;;;5028375;28;20048;-36
2022/03/18 08:41:42;;;;;;;52.40;25.35;;;7.60;99.90;;;;;;5024407;28;20029;-36
2022/03/18 08:44:08;;;;;;;52.88;26.30;;;7.70;99.90;;;;;;5024750;28;20026;-36
2022/03/18 08:46:34;;;;;;;55.78;27.48;;;7.70;99.90;;;;;;5023337;28;20090;-36
2022/03/18 08:49:00;;;;;;;54.03;26.80;;;7.80;99.90;;;;;;5026145;28;20033;-38
2022/03/18 08:51:26;;;;;;;50.20;24.67;;;7.80;99.90;;;;;;5026386;28;20021;-37
2022/03/18 08:53:51;;;;;;;53.75;26.70;;;7.80;99.90;;;;;;5019138;28;20033;-39
2022/03/18 08:56:17;;;;;;;49.90;24.17;;;8.00;99.90;;;;;;5007846;28;20382;-37
2022/03/18 08:58:42;;;;;;;55.50;26.10;;;8.10;99.90;;;;;;5020397;28;20396;-39
2022/03/18 09:01:08;;;;;;;50.83;25.23;;;8.40;99.90;;;;;;5026383;28;20394;-40
2022/03/18 09:03:34;;;;;;;52.20;26.08;;;8.40;99.90;;;;;;5029616;28;20110;-36
2022/03/18 09:06:00;;;;;;;46.20;23.48;;;8.30;99.90;;;;;;5026348;28;20030;-40
2022/03/18 09:08:26;;;;;;;51.85;24.00;;;8.10;99.90;;;;;;5026148;28;20034;-38
2022/03/18 09:10:51;;;;;;;52.55;25.63;;;8.00;99.90;;;;;;5017237;28;20041;-37
2022/03/18 09:13:17;;;;;;;47.63;24.42;;;8.00;99.90;;;;;;5021550;28;20029;-37
2022/03/18 09:15:43;;;;;;;53.72;27.17;;;8.10;99.90;;;;;;5024714;28;20406;-38
2022/03/18 09:18:10;;;;;;;44.35;23.77;;;8.10;99.90;;;;;;5023966;28;20042;-37
2022/03/18 09:20:35;;;;;;;48.75;23.42;;;8.20;99.90;;;;;;5016844;28;20029;-37
2022/03/18 09:23:03;;;;;;;50.92;27.38;;;8.40;99.90;;;;;;5021571;28;20041;-39
2022/03/18 09:25:28;;;;;;;55.42;27.80;;;8.50;99.90;;;;;;5021276;28;20055;-37
2022/03/18 09:27:54;;;;;;;53.58;27.92;;;8.50;99.90;;;;;;5002824;28;20037;-39
2022/03/18 09:30:19;;;;;;;52.17;27.67;;;8.50;99.90;;;;;;5025336;28;20025;-35
2022/03/18 09:32:45;;;;;;;50.50;25.33;;;8.50;99.90;;;;;;5021245;28;20038;-36
2022/03/18 09:35:14;;;;;;;57.08;27.55;;;8.50;99.90;;;;;;5023388;28;20029;-36
2022/03/18 09:37:40;;;;;;;51.15;24.50;;;8.50;99.90;;;;;;5008494;28;20446;-36
2022/03/18 09:40:08;;;;;;;58.80;28.10;;;8.80;99.90;;;;;;5022274;28;20025;-37
2022/03/18 09:42:35;;;;;;;50.25;26.15;;;8.70;99.90;;;;;;5021296;28;20512;-39
2022/03/18 09:45:00;;;;;;;58.35;29.02;;;8.90;99.90;;;;;;5025032;28;20083;-36
2022/03/18 09:47:28;;;;;;;57.63;29.35;;;8.90;99.90;;;;;;5019004;28;20025;-37
2022/03/18 09:49:54;;;;;;;53.10;27.02;;;8.90;99.90;;;;;;5021468;28;20120;-36
2022/03/18 09:52:20;;;;;;;58.63;26.20;;;8.90;99.90;;;;;;5020776;28;20109;-37
2022/03/18 09:54:46;;;;;;;59.28;29.02;;;8.90;99.90;;;;;;5023670;28;20541;-35
2022/03/18 09:57:12;;;;;;;57.55;28.40;;;9.10;99.90;;;;;;5024156;28;20037;-35
2022/03/18 09:59:38;;;;;;;55.90;26.48;;;8.90;99.90;;;;;;5026736;28;20398;-39
2022/03/18 10:02:27;;;;;;;54.20;27.45;;;8.80;99.90;;;;;;5023643;28;20041;-38
2022/03/18 10:05:02;;;;;;;62.08;30.60;;;8.80;99.90;;;;;;5033011;28;20033;-38
2022/03/18 10:07:29;;;;;;;58.47;27.70;;;8.90;99.90;;;;;;5023344;28;20395;-38
2022/03/18 10:10:08;;;;;;;57.03;28.17;;;8.90;99.90;;;;;;5025992;28;20506;-36
2022/03/18 10:12:35;;;;;;;51.55;28.88;;;8.90;99.90;;;;;;5021992;28;20071;-36
2022/03/18 10:15:14;;;;;;;53.85;28.52;;;9.00;99.90;;;;;;5023090;28;20509;-36
2022/03/18 10:17:40;;;;;;;;;;;9.10;99.90;;;;;;5007475;28;20022;-38
2022/03/18 10:20:06;;;;;;;68.60;28.13;;;9.10;99.90;;;;;;5027368;28;19917;-38
2022/03/18 10:22:33;;;;;;;54.35;26.88;;;9.30;99.90;;;;;;5024626;28;20029;-37
2022/03/18 10:25:00;;;;;;;58.28;28.40;;;9.40;99.90;;;;;;5032447;28;20092;-36
2022/03/18 10:27:26;;;;;;;57.42;28.15;;;9.70;99.90;;;;;;5032410;28;20025;-37
2022/03/18 10:29:55;;;;;;;61.03;30.45;;;9.80;99.90;;;;;;5032552;28;20052;-36
2022/03/18 10:32:44;;;;;;;55.92;27.65;;;9.90;99.90;;;;;;5026994;28;20467;-36
2022/03/18 10:38:35;;;;;;;57.42;29.33;;;9.90;99.90;;;;;;5027733;28;20087;-38
2022/03/18 10:41:07;;;;;;;54.92;29.40;;;10.10;99.90;;;;;;5021708;28;20037;-37
2022/03/18 10:43:55;;;;;;;55.85;28.63;;;9.90;98.30;;;;;;5027559;28;20087;-36
2022/03/18 10:46:22;;;;;;;51.80;26.58;;;9.60;99.90;;;;;;5029177;28;20052;-36
2022/03/18 10:49:07;;;;;;;58.00;29.08;;;9.60;99.60;;;;;;5009537;28;20037;-36
2022/03/18 10:51:37;;;;;;;56.70;29.80;;;10.00;99.90;;;;;;5014243;28;20486;-36
2022/03/18 10:54:04;;;;;;;60.15;27.80;;;10.10;99.90;;;;;;5027350;28;20445;-39
2022/03/18 10:56:50;;;;;;;55.33;26.58;;;10.00;99.90;;;;;;5030180;28;20037;-36
2022/03/18 10:59:17;;;;;;;53.17;26.77;;;9.80;99.90;;;;;;5030239;28;20053;-36
2022/03/18 11:01:48;;;;;;;54.00;27.42;;;9.80;98.30;;;;;;5030084;28;20407;-38
2022/03/18 11:04:15;;;;;;;52.25;27.02;;;9.80;99.90;;;;;;5024368;28;20109;-37
2022/03/18 11:07:29;;;;;;;54.90;28.58;;;9.90;98.10;;;;;;5026527;28;20031;-36
2022/03/18 11:12:27;;;;;;;51.53;26.10;;;10.10;99.90;;;;;;5018309;28;20187;-39
2022/03/18 11:14:57;;;;;;;58.03;29.05;;;9.80;98.00;;;;;;5028295;28;20029;-36
2022/03/18 11:17:23;;;;;;;53.33;26.83;;;9.80;98.80;;;;;;5022396;28;20491;-35
2022/03/18 11:19:52;;;;;;;64.60;31.58;;;9.70;99.90;;;;;;5031005;28;20050;-37
2022/03/18 11:22:17;;;;;;;61.53;31.40;;;9.90;99.10;;;;;;5029228;28;20529;-36
2022/03/18 11:24:45;;;;;;;56.45;27.65;;;10.10;99.90;;;;;;5026483;28;20033;-36
2022/03/18 11:27:12;;;;;;;50.28;26.60;;;10.40;99.70;;;;;;5029316;28;20030;-37
2022/03/18 11:29:39;;;;;;;46.88;25.02;;;10.40;97.20;;;;;;5029676;28;20579;-36
2022/03/18 11:32:12;;;;;;;51.05;25.52;;;10.30;98.80;;;;;;5027342;28;20299;-38
2022/03/18 11:34:49;;;;;;;50.88;25.73;;;10.10;95.30;;;;;;5029922;28;20060;-36
2022/03/18 11:37:15;;;;;;;46.45;25.42;;;10.20;95.60;;;;;;5025377;28;20726;-36
2022/03/18 11:39:40;;;;;;;45.45;24.92;;;10.20;93.90;;;;;;5024936;28;20029;-35
2022/03/18 11:42:10;;;;;;;50.47;26.20;;;10.20;94.20;;;;;;5031354;28;20017;-35
2022/03/18 11:44:53;;;;;;;40.75;21.80;;;10.50;94.40;;;;;;5028939;28;20041;-36
2022/03/18 11:47:31;;;;;;;49.75;23.58;;;10.60;94.80;;;;;;5028088;28;20040;-39
2022/03/18 11:50:01;;;;;;;43.75;21.98;;;10.50;89.20;;;;;;5025050;28;20117;-36
2022/03/18 11:52:27;;;;;;;47.95;24.83;;;10.30;83.80;;;;;;5027895;28;20025;-36
2022/03/18 11:54:55;;;;;;;42.90;22.08;;;10.30;91.00;;;;;;5025448;28;20361;-39
2022/03/18 11:57:29;;;;;;;41.78;22.55;;;10.30;87.80;;;;;;5028048;28;20026;-36
2022/03/18 11:59:57;;;;;;;45.95;23.33;;;10.60;80.70;;;;;;5029969;28;20045;-36
2022/03/18 12:02:34;;;;;;;50.42;26.13;;;10.80;84.40;;;;;;5026934;28;20088;-37
2022/03/18 12:05:00;;;;;;;39.53;21.05;;;10.90;90.10;;;;;;5028018;28;20044;-36
2022/03/18 12:07:30;;;;;;;41.63;21.73;;;11.10;89.60;;;;;;5031261;28;20545;-36
2022/03/18 12:09:55;;;;;;;37.85;20.67;;;10.90;77.50;;;;;;5026786;28;20025;-37
2022/03/18 12:12:32;;;;;;;37.03;19.15;;;10.60;83.00;;;;;;5025804;28;20030;-36
2022/03/18 12:15:08;;;;;;;43.55;20.33;;;10.70;73.70;;;;;;5028376;28;20512;-36
2022/03/18 12:17:54;;;;;;;36.80;20.35;;;10.70;73.50;;;;;;5028893;28;20036;-37
2022/03/18 12:20:29;;;;;;;37.70;19.45;;;10.90;87.90;;;;;;5027778;28;20109;-38
2022/03/18 12:22:56;;;;;;;40.83;20.58;;;10.90;80.90;;;;;;5005846;28;20446;-36
2022/03/18 12:25:22;;;;;;;42.25;21.63;;;10.90;69.50;;;;;;5021664;28;20026;-37
2022/03/18 12:27:50;;;;;;;43.00;21.70;;;11.10;81.50;;;;;;5027441;28;20513;-37
2022/03/18 12:30:26;;;;;;;34.37;19.43;;;11.20;85.30;;;;;;5028729;28;20021;-36
2022/03/18 12:32:57;;;;;;;41.53;22.35;;;11.20;71.40;;;;;;5008570;28;20665;-37
2022/03/18 12:35:35;;;;;;;40.38;20.25;;;11.10;73.00;;;;;;5029715;28;20155;-36
2022/03/18 12:38:09;;;;;;;38.65;21.77;;;11.00;72.40;;;;;;5019406;28;20021;-36
2022/03/18 12:40:38;;;;;;;42.67;23.52;;;11.20;78.00;;;;;;5006570;28;20025;-36
2022/03/18 12:43:03;;;;;;;;;;;11.20;70.40;;;;;;5024905;28;20616;-38
2022/03/18 12:45:38;;;;;;;42.53;22.13;;;11.20;84.80;;;;;;5022954;28;19909;-35
2022/03/18 12:48:05;;;;;;;34.05;19.88;;;11.50;78.10;;;;;;5022869;28;20120;-36
2022/03/18 12:50:37;;;;;;;47.47;23.88;;;11.40;70.60;;;;;;5023624;28;22049;-36
2022/03/18 12:53:16;;;;;;;37.35;22.00;;;11.50;68.20;;;;;;5024764;28;20029;-38
2022/03/18 12:55:45;;;;;;;;;;;11.40;67.50;;;;;;5024307;28;20548;-37
2022/03/18 12:58:12;;;;;;;36.65;19.42;;;11.50;68.70;;;;;;5018705;28;20008;-38
2022/03/18 13:00:42;;;;;;;32.13;19.05;;;11.40;63.00;;;;;;5026870;28;20042;-38